createdAt,value
2023-03-14T00:00:21.721Z,60.64
2023-03-14T00:03:10.992Z,63.24
2023-03-14T00:05:40.496Z,62.74
2023-03-14T00:08:09.795Z,65.17
2023-03-14T00:10:39.959Z,65.51
2023-03-14T00:13:09.209Z,65.12
2023-03-14T00:15:39.289Z,64.29
2023-03-14T00:18:08.940Z,65.02
2023-03-14T00:20:37.835Z,66.48
2023-03-14T00:23:07.578Z,65.12
2023-03-14T00:25:38.168Z,60.23
2023-03-14T00:28:08.093Z,64.21
2023-03-14T00:30:39.209Z,63.43
2023-03-14T00:33:09.140Z,59.01
2023-03-14T00:35:39.761Z,57.67
2023-03-14T00:38:08.961Z,64.87
2023-03-14T00:40:41.124Z,67.61
2023-03-14T00:43:10.545Z,66.26
2023-03-14T00:45:41.019Z,66.32
2023-03-14T00:48:13.303Z,66.53
2023-03-14T00:50:43.806Z,65.02
2023-03-14T00:53:14.329Z,63.15
2023-03-14T00:55:44.097Z,60.01
2023-03-14T00:58:16.108Z,58.82
2023-03-14T01:00:47.160Z,59.31
2023-03-14T01:03:17.170Z,62.33
2023-03-14T01:05:46.646Z,63.39
2023-03-14T01:08:16.542Z,63.87
2023-03-14T01:10:48.045Z,64.15
2023-03-14T01:13:19.314Z,63.55
2023-03-14T01:15:49.755Z,60.17
2023-03-14T01:18:21.197Z,57.97
2023-03-14T01:20:51.817Z,57.49
2023-03-14T01:23:23.236Z,59.68
2023-03-14T01:25:53.589Z,60.29
2023-03-14T01:28:24.528Z,61.32
2023-03-14T01:30:55.079Z,63.60
2023-03-14T01:33:26.558Z,65.79
2023-03-14T01:35:58.332Z,64.90
2023-03-14T01:38:36.243Z,65.33
2023-03-14T01:41:13.804Z,65.43
2023-03-14T01:43:45.463Z,65.11
2023-03-14T01:46:19.271Z,62.79
2023-03-14T01:49:10.369Z,61.82
2023-03-14T01:51:43.425Z,61.96
2023-03-14T01:54:29.152Z,62.77
2023-03-14T01:57:33.626Z,61.90
2023-03-14T02:00:16.049Z,60.66
2023-03-14T02:02:51.859Z,59.90
2023-03-14T02:05:29.043Z,60.35
2023-03-14T02:08:09.527Z,63.49
2023-03-14T02:10:50.041Z,68.08
2023-03-14T02:13:24.974Z,67.94
2023-03-14T02:16:02.116Z,70.02
2023-03-14T02:18:56.813Z,70.46
2023-03-14T02:22:09.931Z,67.31
2023-03-14T02:25:10.304Z,64.86
2023-03-14T02:27:41.284Z,67.01
2023-03-14T02:30:15.419Z,68.40
2023-03-14T02:32:55.257Z,69.36
2023-03-14T02:35:29.808Z,71.15
2023-03-14T02:38:24.214Z,69.59
2023-03-14T02:40:54.282Z,71.22
2023-03-14T02:43:25.398Z,69.46
2023-03-14T02:46:02.784Z,70.97
2023-03-14T02:48:42.497Z,72.08
2023-03-14T02:51:13.771Z,72.06
2023-03-14T02:53:45.315Z,71.50
2023-03-14T02:56:15.767Z,71.35
2023-03-14T02:58:46.352Z,70.64
2023-03-14T03:01:37.673Z,68.53
2023-03-14T03:04:10.285Z,71.11
2023-03-14T03:06:40.738Z,67.63
2023-03-14T03:09:11.341Z,67.16
2023-03-14T03:11:41.434Z,66.64
2023-03-14T03:14:12.964Z,67.14
2023-03-14T03:16:43.243Z,71.21
2023-03-14T03:19:12.401Z,72.20
2023-03-14T03:21:41.827Z,74.48
2023-03-14T03:24:12.430Z,73.38
2023-03-14T03:26:42.762Z,72.54
2023-03-14T03:29:13.637Z,73.53
2023-03-14T03:31:43.358Z,76.22
2023-03-14T03:34:14.354Z,75.50
2023-03-14T03:36:44.752Z,78.23
2023-03-14T03:39:15.633Z,77.91
2023-03-14T03:41:46.701Z,76.35
2023-03-14T03:44:18.119Z,78.59
2023-03-14T03:46:47.615Z,78.07
2023-03-14T03:49:17.684Z,75.14
2023-03-14T03:51:48.361Z,74.08
2023-03-14T03:54:18.070Z,72.65
2023-03-14T03:56:47.983Z,72.18
2023-03-14T03:59:17.695Z,70.44
2023-03-14T04:01:49.075Z,71.37
2023-03-14T04:04:21.774Z,71.90
2023-03-14T04:06:53.101Z,72.49
2023-03-14T04:09:23.285Z,72.80
2023-03-14T04:12:10.590Z,75.90
2023-03-14T04:14:58.196Z,78.83
2023-03-14T04:17:27.184Z,79.91
2023-03-14T04:19:56.864Z,80.52
2023-03-14T04:22:34.742Z,79.48
2023-03-14T04:25:05.098Z,80.14
2023-03-14T04:27:38.352Z,80.00
2023-03-14T04:30:13.378Z,80.42
2023-03-14T04:32:50.937Z,80.93
2023-03-14T04:35:21.357Z,80.33
2023-03-14T04:37:50.814Z,79.32
2023-03-14T04:40:20.643Z,79.25
2023-03-14T04:42:51.874Z,78.35
2023-03-14T04:45:21.885Z,77.73
2023-03-14T04:47:51.276Z,77.54
2023-03-14T04:50:22.012Z,79.03
2023-03-14T04:52:51.993Z,81.18
2023-03-14T04:55:23.428Z,76.74
2023-03-14T04:57:53.696Z,72.97
2023-03-14T05:00:23.726Z,73.71
2023-03-14T05:03:29.480Z,72.64
2023-03-14T05:06:27.553Z,76.37
2023-03-14T05:08:56.934Z,78.31
2023-03-14T05:11:40.472Z,80.38
2023-03-14T05:14:19.335Z,79.26
2023-03-14T05:17:15.933Z,79.69
2023-03-14T05:20:11.422Z,80.28
2023-03-14T05:23:16.086Z,78.96
2023-03-14T05:26:00.135Z,78.92
2023-03-14T05:28:50.213Z,77.62
2023-03-14T05:31:31.855Z,75.19
2023-03-14T05:34:32.741Z,75.71
2023-03-14T05:37:24.159Z,77.01
2023-03-14T05:40:08.149Z,76.84
2023-03-14T05:42:44.275Z,75.63
2023-03-14T05:45:34.460Z,73.82
2023-03-14T05:48:31.278Z,72.03
2023-03-14T05:51:11.859Z,70.75
2023-03-14T05:53:52.176Z,69.71
2023-03-14T05:56:44.979Z,70.91
2023-03-14T05:59:34.051Z,66.84
2023-03-14T06:02:17.293Z,67.44
2023-03-14T06:04:51.889Z,63.56
2023-03-14T06:07:21.094Z,63.40
2023-03-14T06:09:50.923Z,62.22
2023-03-14T06:12:20.706Z,60.32
2023-03-14T06:14:49.599Z,60.02
2023-03-14T06:17:18.807Z,58.12
2023-03-14T06:19:53.523Z,57.64
2023-03-14T06:22:22.831Z,57.68
2023-03-14T06:24:51.809Z,56.52
2023-03-14T06:27:21.115Z,55.42
2023-03-14T06:29:50.013Z,54.02
2023-03-14T06:32:19.755Z,56.37
2023-03-14T06:34:50.140Z,52.89
2023-03-14T06:37:21.085Z,52.51
2023-03-14T06:39:50.481Z,50.32
2023-03-14T06:42:25.823Z,50.32
2023-03-14T06:44:54.916Z,50.41
2023-03-14T06:47:23.816Z,50.61
2023-03-14T06:49:53.213Z,48.64
2023-03-14T06:52:22.524Z,48.63
2023-03-14T06:54:51.502Z,49.23
2023-03-14T06:57:23.339Z,50.67
2023-03-14T06:59:52.473Z,47.33
2023-03-14T07:02:27.035Z,47.41
2023-03-14T07:05:02.632Z,46.33
2023-03-14T07:07:31.810Z,44.97
2023-03-14T07:10:00.847Z,45.62
2023-03-14T07:12:30.759Z,44.53
2023-03-14T07:15:08.678Z,42.88
2023-03-14T07:17:45.306Z,44.67
2023-03-14T07:20:14.194Z,43.91
2023-03-14T07:22:43.193Z,42.51
2023-03-14T07:25:13.639Z,42.62
2023-03-14T07:27:46.040Z,43.81
2023-03-14T07:30:15.856Z,43.64
2023-03-14T07:32:44.476Z,42.59
2023-03-14T07:35:14.301Z,42.45
2023-03-14T07:37:44.227Z,41.75
2023-03-14T07:40:16.795Z,41.23
2023-03-14T07:42:45.686Z,40.26
2023-03-14T07:45:20.313Z,39.58
2023-03-14T07:47:48.856Z,39.85
2023-03-14T07:50:17.989Z,39.81
2023-03-14T07:52:46.677Z,39.36
2023-03-14T07:55:15.679Z,39.05
2023-03-14T07:57:45.386Z,39.15
2023-03-14T08:00:17.907Z,37.90
2023-03-14T08:02:47.609Z,37.64
2023-03-14T08:05:16.872Z,36.94
2023-03-14T08:07:45.551Z,35.85
2023-03-14T08:10:24.329Z,35.49
2023-03-14T08:12:56.821Z,35.37
2023-03-14T08:15:26.524Z,33.86
2023-03-14T08:17:55.638Z,33.16
2023-03-14T08:20:28.159Z,34.30
2023-03-14T08:23:02.863Z,34.05
2023-03-14T08:25:32.198Z,30.65
2023-03-14T08:28:02.683Z,30.14
2023-03-14T08:30:31.810Z,30.29
2023-03-14T08:33:01.059Z,30.50
2023-03-14T08:35:31.099Z,28.67
2023-03-14T08:38:00.939Z,27.86
2023-03-14T08:40:29.899Z,27.58
2023-03-14T08:42:58.782Z,27.12
2023-03-14T08:45:28.294Z,27.47
2023-03-14T08:47:58.700Z,26.85
2023-03-14T08:50:28.085Z,26.70
2023-03-14T08:52:59.098Z,27.01
2023-03-14T08:55:28.763Z,27.10
2023-03-14T08:57:57.341Z,27.28
2023-03-14T09:00:26.236Z,26.81
2023-03-14T09:02:55.500Z,27.44
2023-03-14T09:05:24.530Z,26.06
2023-03-14T09:07:53.524Z,25.88
2023-03-14T09:10:24.481Z,24.97
2023-03-14T09:12:53.150Z,25.02
2023-03-14T09:15:22.054Z,25.01
2023-03-14T09:17:50.956Z,24.16
2023-03-14T09:20:19.921Z,24.00
2023-03-14T09:22:48.563Z,23.52
2023-03-14T09:25:18.127Z,22.98
2023-03-14T09:27:47.624Z,23.35
2023-03-14T09:30:16.474Z,23.04
2023-03-14T09:32:45.652Z,22.99
2023-03-14T09:35:14.610Z,23.52
2023-03-14T09:37:44.087Z,23.77
2023-03-14T09:40:21.583Z,25.09
2023-03-14T09:42:53.255Z,24.78
2023-03-14T09:45:35.880Z,24.04
2023-03-14T09:48:06.483Z,24.21
2023-03-14T09:50:43.157Z,23.82
2023-03-14T09:53:20.021Z,23.45
2023-03-14T09:55:52.261Z,23.29
2023-03-14T09:58:23.738Z,23.00
2023-03-14T10:00:56.830Z,22.78
2023-03-14T10:03:34.136Z,23.57
2023-03-14T10:06:10.797Z,23.27
2023-03-14T10:08:46.838Z,24.19
2023-03-14T10:11:19.491Z,23.69
2023-03-14T10:14:10.954Z,23.29
2023-03-14T10:16:46.561Z,22.55
2023-03-14T10:31:27.618Z,21.87
2023-03-14T10:34:05.304Z,22.50
2023-03-14T10:36:36.409Z,22.61
2023-03-14T10:39:35.709Z,23.11
2023-03-14T10:42:16.317Z,23.28
2023-03-14T10:44:45.572Z,23.62
2023-03-14T10:47:24.912Z,23.44
2023-03-14T10:49:53.794Z,21.82
2023-03-14T10:52:57.559Z,21.02
2023-03-14T10:55:18.064Z,20.29
2023-03-14T10:57:46.646Z,19.50
2023-03-14T11:00:24.073Z,19.63
2023-03-14T11:03:11.084Z,19.78
2023-03-14T11:05:59.652Z,19.88
2023-03-14T11:08:56.383Z,19.06
2023-03-14T11:11:29.674Z,19.22
2023-03-14T11:14:19.246Z,19.47
2023-03-14T11:17:03.311Z,20.32
2023-03-14T11:20:27.382Z,21.09
2023-03-14T11:23:09.453Z,21.30
2023-03-14T11:25:51.580Z,21.50
2023-03-14T11:28:44.350Z,22.12
2023-03-14T11:31:22.404Z,22.52
2023-03-14T11:34:12.626Z,22.89
2023-03-14T11:36:57.288Z,22.86
2023-03-14T11:39:30.479Z,22.84
2023-03-14T11:42:01.316Z,22.76
2023-03-14T11:44:39.525Z,22.40
2023-03-14T11:47:28.586Z,22.28
2023-03-14T11:50:20.385Z,22.63
2023-03-14T11:52:48.888Z,22.50
2023-03-14T11:55:29.569Z,22.62
2023-03-14T11:58:05.516Z,21.78
2023-03-14T12:00:34.975Z,21.75
2023-03-14T12:03:06.229Z,22.21
2023-03-14T12:06:01.473Z,22.57
2023-03-14T12:08:52.127Z,23.01
2023-03-14T12:12:01.004Z,22.14
2023-03-14T12:14:33.874Z,21.36
2023-03-14T12:17:09.268Z,20.21
2023-03-14T12:19:40.878Z,19.82
2023-03-14T12:22:34.343Z,19.04
2023-03-14T12:25:08.770Z,18.64
2023-03-14T12:27:46.667Z,18.03
2023-03-14T12:30:30.930Z,17.81
2023-03-14T12:33:12.710Z,17.33
2023-03-14T12:35:52.842Z,17.45
2023-03-14T12:38:42.748Z,17.52
2023-03-14T12:41:30.279Z,17.64
2023-03-14T12:44:30.589Z,18.34
2023-03-14T12:47:20.188Z,18.90
2023-03-14T12:49:53.479Z,19.41
2023-03-14T12:52:42.929Z,19.69
2023-03-14T12:55:41.945Z,19.41
2023-03-14T12:58:28.850Z,18.27
2023-03-14T13:01:02.632Z,18.14
2023-03-14T13:03:47.325Z,17.90
2023-03-14T13:06:55.106Z,18.01
2023-03-14T13:09:38.658Z,17.81
2023-03-14T13:12:19.218Z,17.38
2023-03-14T13:14:51.206Z,16.78
2023-03-14T13:17:37.622Z,16.75
2023-03-14T13:20:35.555Z,16.92
2023-03-14T13:23:04.820Z,16.84
2023-03-14T13:25:34.977Z,17.43
2023-03-14T13:28:05.180Z,17.60
2023-03-14T13:30:42.232Z,17.47
2023-03-14T13:33:19.779Z,17.66
2023-03-14T13:36:01.796Z,18.39
2023-03-14T13:38:33.180Z,19.19
2023-03-14T13:41:10.916Z,19.74
2023-03-14T13:43:47.635Z,20.15
2023-03-14T13:46:26.579Z,20.25
2023-03-14T13:49:03.293Z,20.66
2023-03-14T13:51:36.798Z,20.50
2023-03-14T13:54:15.733Z,20.42
2023-03-14T13:56:45.496Z,20.52
2023-03-14T13:59:28.659Z,20.73
2023-03-14T14:02:00.207Z,20.54
2023-03-14T14:04:30.793Z,20.19
2023-03-14T14:07:01.690Z,20.16
2023-03-14T14:09:40.798Z,19.41
2023-03-14T14:12:16.849Z,18.57
2023-03-14T14:15:17.599Z,17.70
2023-03-14T14:17:56.206Z,17.91
2023-03-14T14:20:32.988Z,17.96
2023-03-14T14:23:08.106Z,18.21
2023-03-14T14:25:38.188Z,18.62
2023-03-14T14:28:33.040Z,19.16
2023-03-14T14:31:21.051Z,19.64
2023-03-14T14:33:59.798Z,19.60
2023-03-14T14:36:33.617Z,19.41
2023-03-14T14:39:21.347Z,19.37
2023-03-14T14:41:53.126Z,19.77
2023-03-14T14:44:37.263Z,19.75
2023-03-14T14:47:06.718Z,20.15
2023-03-14T14:49:35.541Z,20.60
2023-03-14T14:52:44.605Z,20.71
2023-03-14T14:55:15.163Z,21.45
2023-03-14T14:57:58.019Z,21.95
2023-03-14T15:00:28.761Z,22.30
2023-03-14T15:03:01.300Z,22.55
2023-03-14T15:05:37.370Z,22.49
2023-03-14T15:08:11.107Z,22.90
2023-03-14T15:10:42.423Z,22.71
2023-03-14T15:13:13.871Z,22.22
2023-03-14T15:15:44.723Z,22.18
2023-03-14T15:18:18.859Z,21.83
2023-03-14T15:20:47.730Z,21.07
2023-03-14T15:23:20.042Z,21.45
2023-03-14T15:25:57.464Z,22.13
2023-03-14T15:28:31.358Z,21.50
2023-03-14T15:31:00.294Z,21.53
2023-03-14T15:33:29.089Z,21.91
2023-03-14T15:35:58.636Z,22.47
2023-03-14T15:38:27.281Z,22.70
2023-03-14T15:40:56.163Z,22.74
2023-03-14T15:43:24.953Z,23.01
2023-03-14T15:45:53.830Z,23.29
2023-03-14T15:48:23.382Z,23.95
2023-03-14T15:50:52.136Z,23.88
2023-03-14T15:53:20.947Z,23.86
2023-03-14T15:55:49.636Z,23.93
2023-03-14T15:58:21.857Z,24.09
2023-03-14T16:00:51.330Z,24.12
2023-03-14T16:03:20.103Z,24.52
2023-03-14T16:05:49.065Z,24.94
2023-03-14T16:08:18.660Z,25.10
2023-03-14T16:10:48.078Z,25.39
2023-03-14T16:13:17.059Z,25.79
2023-03-14T16:16:06.701Z,25.84
2023-03-14T16:18:37.690Z,25.86
2023-03-14T16:21:13.427Z,26.19
2023-03-14T16:23:42.520Z,26.04
2023-03-14T16:26:14.183Z,26.24
2023-03-14T16:28:43.560Z,26.58
2023-03-14T16:31:19.368Z,27.12
2023-03-14T16:33:48.312Z,29.44
2023-03-14T16:36:17.050Z,29.98
2023-03-14T16:38:46.917Z,30.21
2023-03-14T16:41:17.744Z,30.40
2023-03-14T16:43:51.459Z,30.95
2023-03-14T16:46:22.910Z,30.90
2023-03-14T16:48:51.931Z,30.75
2023-03-14T16:51:21.427Z,30.54
2023-03-14T16:53:52.456Z,30.99
2023-03-14T16:56:21.966Z,31.78
2023-03-14T16:58:51.257Z,31.39
2023-03-14T17:01:19.990Z,31.06
2023-03-14T17:03:52.815Z,30.97
2023-03-14T17:06:27.744Z,31.42
2023-03-14T17:08:58.472Z,31.92
2023-03-14T17:11:27.282Z,31.64
2023-03-14T17:13:55.955Z,33.88
2023-03-14T17:16:25.002Z,34.20
2023-03-14T17:18:54.268Z,35.60
2023-03-14T17:21:23.967Z,35.46
2023-03-14T17:23:52.755Z,34.98
2023-03-14T17:26:21.533Z,36.93
2023-03-14T17:28:50.223Z,39.08
2023-03-14T17:31:20.999Z,36.94
2023-03-14T17:33:54.140Z,37.00
2023-03-14T17:36:26.726Z,37.47
2023-03-14T17:38:58.630Z,36.36
2023-03-14T17:41:27.520Z,36.48
2023-03-14T17:43:57.593Z,37.08
2023-03-14T22:22:24.260Z,42.70
2023-03-14T22:24:54.292Z,42.60
2023-03-14T22:27:23.143Z,42.30
2023-03-14T22:29:52.589Z,42.14
2023-03-14T22:32:21.762Z,42.12
2023-03-14T22:34:50.634Z,42.02
2023-03-14T22:37:19.829Z,41.99
2023-03-14T22:39:48.827Z,42.09
2023-03-14T22:42:17.823Z,42.13
2023-03-14T22:44:46.832Z,41.95
2023-03-14T22:47:17.033Z,42.20
2023-03-14T22:49:46.133Z,42.12
2023-03-14T22:52:15.862Z,42.22
2023-03-14T22:54:45.449Z,42.28
2023-03-14T22:57:16.317Z,42.59
2023-03-14T22:59:45.421Z,42.84
2023-03-14T23:02:15.197Z,42.90
2023-03-14T23:04:44.311Z,42.56
2023-03-14T23:07:14.009Z,42.92
2023-03-14T23:09:43.503Z,42.59
2023-03-14T23:12:18.029Z,42.45
2023-03-14T23:14:47.318Z,42.56
2023-03-14T23:17:17.474Z,42.40
2023-03-14T23:19:47.181Z,42.50
2023-03-14T23:22:17.679Z,43.00
2023-03-14T23:24:49.052Z,42.99
2023-03-14T23:27:19.271Z,43.34
2023-03-14T23:29:48.770Z,43.31
2023-03-14T23:32:18.760Z,43.55
2023-03-14T23:34:49.422Z,43.58
2023-03-14T23:37:19.463Z,44.02
2023-03-14T23:39:48.562Z,44.49
2023-03-14T23:42:17.725Z,44.43
2023-03-14T23:44:47.171Z,44.77
2023-03-14T23:47:16.420Z,45.11
2023-03-14T23:49:45.599Z,44.91
2023-03-14T23:52:15.541Z,45.03
2023-03-14T23:54:45.352Z,45.20
2023-03-14T23:57:15.167Z,45.08
2023-03-14T23:59:44.447Z,45.22
